createdAt,value
2018-07-26T00:00:10.441Z,22.60
2018-07-26T00:02:39.685Z,22.50
2018-07-26T00:05:08.917Z,22.40
2018-07-26T00:07:38.208Z,22.40
2018-07-26T00:10:08.772Z,22.50
2018-07-26T00:12:38.146Z,22.40
2018-07-26T00:15:08.671Z,22.40
2018-07-26T00:17:37.976Z,22.30
2018-07-26T00:20:08.269Z,22.20
2018-07-26T00:22:37.496Z,21.90
2018-07-26T00:25:06.697Z,21.90
2018-07-26T00:27:35.945Z,21.90
2018-07-26T00:30:05.503Z,22.00
2018-07-26T00:32:34.768Z,22.00
2018-07-26T00:35:04.024Z,21.90
2018-07-26T00:37:33.271Z,21.80
2018-07-26T00:40:02.601Z,21.60
2018-07-26T00:42:31.828Z,21.20
2018-07-26T00:45:01.072Z,21.10
2018-07-26T00:47:30.401Z,21.10
2018-07-26T00:49:59.689Z,21.10
2018-07-26T00:52:29.277Z,21.10
2018-07-26T00:54:58.508Z,21.20
2018-07-26T00:57:27.725Z,21.00
2018-07-26T00:59:56.972Z,21.00
2018-07-26T01:02:29.095Z,21.10
2018-07-26T01:04:58.336Z,21.00
2018-07-26T01:07:27.568Z,20.80
2018-07-26T01:09:56.835Z,20.80
2018-07-26T01:12:26.096Z,20.70
2018-07-26T01:14:55.331Z,20.70
2018-07-26T01:17:24.564Z,20.80
2018-07-26T01:19:53.972Z,21.00
2018-07-26T01:22:23.164Z,20.90
2018-07-26T01:24:52.869Z,20.90
2018-07-26T01:27:22.076Z,20.80
2018-07-26T01:29:51.366Z,20.70
2018-07-26T01:32:20.600Z,20.70
2018-07-26T01:34:49.812Z,20.60
2018-07-26T01:37:19.132Z,20.70
2018-07-26T01:39:48.439Z,20.50
2018-07-26T01:42:17.748Z,20.70
2018-07-26T01:44:47.004Z,20.70
2018-07-26T01:47:16.241Z,20.80
2018-07-26T01:49:45.565Z,20.60
2018-07-26T01:52:14.872Z,20.70
2018-07-26T01:54:44.099Z,20.60
2018-07-26T01:57:13.747Z,20.60
2018-07-26T01:59:42.974Z,20.70
2018-07-26T02:02:12.200Z,20.50
2018-07-26T02:04:41.444Z,20.50
2018-07-26T02:07:10.709Z,20.60
2018-07-26T02:12:08.696Z,20.50
2018-07-26T02:14:37.952Z,20.60
2018-07-26T02:17:07.161Z,20.50
2018-07-26T02:19:36.427Z,20.60
2018-07-26T02:22:05.657Z,20.30
2018-07-26T02:24:34.985Z,20.40
2018-07-26T02:27:04.364Z,20.40
2018-07-26T02:29:33.680Z,20.30
2018-07-26T02:32:02.935Z,20.20
2018-07-26T02:34:32.159Z,20.30
2018-07-26T02:37:01.361Z,20.10
2018-07-26T02:39:30.664Z,20.10
2018-07-26T02:41:59.923Z,20.10
2018-07-26T02:44:29.156Z,20.00
2018-07-26T02:46:58.383Z,20.00
2018-07-26T02:49:27.656Z,20.00
2018-07-26T02:51:56.889Z,20.00
2018-07-26T02:54:26.156Z,20.10
2018-07-26T02:56:55.525Z,20.10
2018-07-26T02:59:24.847Z,20.20
2018-07-26T03:01:54.110Z,20.20
2018-07-26T03:04:23.344Z,20.20
2018-07-26T03:06:52.555Z,20.30
2018-07-26T03:09:22.880Z,20.30
2018-07-26T03:11:52.107Z,20.30
2018-07-26T03:14:21.406Z,20.20
2018-07-26T03:16:50.665Z,20.00
2018-07-26T03:19:19.970Z,19.80
2018-07-26T03:21:49.207Z,19.70
2018-07-26T03:24:18.484Z,19.70
2018-07-26T03:26:47.704Z,19.80
2018-07-26T03:29:17.096Z,19.70
2018-07-26T03:31:46.344Z,19.80
2018-07-26T03:34:15.953Z,19.80
2018-07-26T03:36:45.200Z,19.90
2018-07-26T03:39:14.447Z,19.90
2018-07-26T03:41:43.708Z,19.90
2018-07-26T03:44:13.292Z,19.50
2018-07-26T03:46:42.512Z,19.40
2018-07-26T03:49:12.096Z,19.40
2018-07-26T03:51:41.370Z,19.40
2018-07-26T03:54:10.589Z,19.50
2018-07-26T03:56:39.817Z,19.50
2018-07-26T03:59:09.089Z,19.60
2018-07-26T04:01:38.668Z,19.70
2018-07-26T04:04:08.920Z,19.50
2018-07-26T04:06:38.135Z,19.60
2018-07-26T04:09:11.103Z,19.80
2018-07-26T04:11:40.400Z,19.80
2018-07-26T04:14:09.666Z,19.70
2018-07-26T04:16:38.927Z,19.60
2018-07-26T04:19:09.130Z,19.40
2018-07-26T04:21:38.867Z,19.30
2018-07-26T04:24:08.175Z,19.30
2018-07-26T04:26:37.853Z,19.10
2018-07-26T04:29:07.168Z,19.10
2018-07-26T04:31:37.200Z,19.20
2018-07-26T04:34:06.624Z,19.10
2018-07-26T04:36:35.992Z,19.20
2018-07-26T04:39:08.293Z,19.20
2018-07-26T04:41:37.795Z,19.20
2018-07-26T04:44:07.165Z,19.20
2018-07-26T04:46:37.537Z,19.20
2018-07-26T04:49:06.915Z,19.10
2018-07-26T04:51:36.251Z,19.20
2018-07-26T04:54:05.548Z,19.20
2018-07-26T04:56:34.900Z,19.10
2018-07-26T04:59:04.277Z,19.10
2018-07-26T05:01:33.609Z,19.10
2018-07-26T05:04:02.966Z,19.10
2018-07-26T05:06:32.402Z,19.10
2018-07-26T05:09:01.759Z,19.30
2018-07-26T05:11:31.324Z,19.20
2018-07-26T05:14:00.669Z,19.30
2018-07-26T05:16:30.136Z,19.30
2018-07-26T05:18:59.627Z,19.40
2018-07-26T05:21:28.947Z,19.50
2018-07-26T05:23:58.463Z,19.60
2018-07-26T05:26:27.759Z,19.70
2018-07-26T05:28:57.212Z,19.80
2018-07-26T05:31:26.533Z,19.90
2018-07-26T05:33:55.870Z,20.10
2018-07-26T05:36:25.228Z,20.10
2018-07-26T05:38:54.748Z,20.30
2018-07-26T05:41:24.048Z,20.50
2018-07-26T05:43:53.425Z,20.60
2018-07-26T05:46:22.687Z,20.80
2018-07-26T05:48:52.046Z,20.90
2018-07-26T05:51:21.400Z,21.00
2018-07-26T05:53:50.748Z,21.20
2018-07-26T05:56:20.094Z,21.30
2018-07-26T05:58:49.592Z,21.50
2018-07-26T06:01:19.020Z,21.70
2018-07-26T06:03:48.386Z,21.70
2018-07-26T06:08:46.723Z,22.10
2018-07-26T06:11:16.250Z,22.30
2018-07-26T06:13:45.603Z,22.30
2018-07-26T06:16:14.899Z,22.30
2018-07-26T06:18:44.337Z,22.50
2018-07-26T06:21:13.788Z,22.70
2018-07-26T06:23:43.412Z,22.90
2018-07-26T06:26:12.755Z,22.90
2018-07-26T06:28:42.158Z,22.90
2018-07-26T06:31:11.999Z,22.90
2018-07-26T06:33:42.010Z,22.90
2018-07-26T06:36:11.854Z,23.10
2018-07-26T06:38:42.815Z,23.30
2018-07-26T06:41:12.249Z,23.40
2018-07-26T06:43:42.328Z,23.60
2018-07-26T06:46:12.060Z,23.60
2018-07-26T06:48:41.759Z,23.60
2018-07-26T06:51:11.535Z,23.80
2018-07-26T06:53:41.039Z,23.90
2018-07-26T06:58:40.597Z,24.20
2018-07-26T07:01:10.733Z,24.20
2018-07-26T07:03:40.583Z,24.20
2018-07-26T07:06:10.386Z,24.10
2018-07-26T07:08:42.189Z,24.20
2018-07-26T07:11:12.080Z,24.50
2018-07-26T07:13:42.078Z,24.50
2018-07-26T07:16:12.393Z,24.30
2018-07-26T07:18:42.241Z,24.00
2018-07-26T07:21:12.383Z,24.10
2018-07-26T07:23:41.696Z,24.20
2018-07-26T07:26:11.068Z,24.30
2018-07-26T07:28:41.420Z,24.20
2018-07-26T07:31:10.720Z,24.50
2018-07-26T07:33:40.053Z,24.60
2018-07-26T07:36:09.330Z,24.40
2018-07-26T07:38:38.765Z,24.70
2018-07-26T07:41:08.105Z,24.70
2018-07-26T07:46:06.406Z,25.00
2018-07-26T07:48:35.958Z,25.00
2018-07-26T07:51:05.267Z,24.90
2018-07-26T07:53:34.602Z,25.00
2018-07-26T07:56:03.941Z,25.10
2018-07-26T07:58:33.261Z,25.20
2018-07-26T08:01:02.592Z,25.40
2018-07-26T08:03:31.910Z,25.20
2018-07-26T08:06:01.237Z,25.30
2018-07-26T08:08:30.679Z,25.50
2018-07-26T08:10:59.995Z,25.40
2018-07-26T08:13:29.357Z,25.40
2018-07-26T08:15:58.669Z,25.60
2018-07-26T08:18:28.169Z,25.60
2018-07-26T08:20:57.558Z,25.90
2018-07-26T08:23:26.878Z,25.80
2018-07-26T08:25:56.257Z,25.90
2018-07-26T08:28:25.552Z,26.30
2018-07-26T08:30:54.985Z,26.70
2018-07-26T08:33:24.309Z,26.80
2018-07-26T08:35:53.829Z,26.60
2018-07-26T08:38:23.208Z,26.50
2018-07-26T08:40:52.603Z,26.70
2018-07-26T08:43:21.931Z,26.60
2018-07-26T08:45:51.299Z,27.00
2018-07-26T08:48:20.539Z,27.10
2018-07-26T08:50:51.024Z,27.20
2018-07-26T08:53:26.877Z,27.30
2018-07-26T08:55:56.136Z,27.30
2018-07-26T08:58:25.415Z,27.40
2018-07-26T09:00:54.920Z,27.60
2018-07-26T09:03:24.208Z,27.70
2018-07-26T09:05:53.487Z,27.70
2018-07-26T09:08:22.827Z,27.60
2018-07-26T09:10:52.392Z,27.90
2018-07-26T09:13:21.731Z,28.10
2018-07-26T09:15:51.225Z,28.20
2018-07-26T09:18:20.504Z,28.40
2018-07-26T09:20:50.114Z,28.40
2018-07-26T09:23:19.520Z,28.20
2018-07-26T09:25:49.016Z,28.10
2018-07-26T09:28:18.355Z,28.50
2018-07-26T09:30:47.796Z,28.50
2018-07-26T09:33:17.192Z,28.40
2018-07-26T09:35:46.529Z,28.30
2018-07-26T09:38:15.892Z,28.40
2018-07-26T09:40:45.277Z,28.60
2018-07-26T09:43:14.601Z,29.00
2018-07-26T09:45:43.873Z,29.00
2018-07-26T09:48:13.199Z,29.00
2018-07-26T09:50:42.576Z,29.00
2018-07-26T09:53:11.947Z,28.90
2018-07-26T09:55:41.241Z,28.80
2018-07-26T09:58:10.604Z,29.10
2018-07-26T10:00:44.888Z,29.30
2018-07-26T10:03:14.305Z,29.30
2018-07-26T10:05:43.588Z,29.50
2018-07-26T10:08:12.922Z,29.50
2018-07-26T10:10:42.390Z,29.50
2018-07-26T10:13:11.740Z,29.90
2018-07-26T10:15:41.113Z,30.10
2018-07-26T10:18:10.462Z,30.30
2018-07-26T10:20:39.850Z,30.60
2018-07-26T10:23:09.351Z,30.40
2018-07-26T10:25:39.033Z,30.50
2018-07-26T10:30:37.181Z,30.70
2018-07-26T10:33:06.856Z,30.90
2018-07-26T10:35:36.164Z,30.90
2018-07-26T10:38:05.516Z,30.90
2018-07-26T10:40:34.829Z,31.20
2018-07-26T10:43:04.181Z,31.10
2018-07-26T10:45:33.585Z,31.30
2018-07-26T10:48:02.911Z,31.30
2018-07-26T10:50:32.321Z,31.40
2018-07-26T10:53:01.628Z,31.40
2018-07-26T10:58:02.144Z,31.70
2018-07-26T11:00:31.487Z,31.90
2018-07-26T11:03:00.796Z,31.80
2018-07-26T11:05:30.164Z,31.80
2018-07-26T11:07:59.464Z,32.00
2018-07-26T11:10:28.829Z,32.30
2018-07-26T11:12:58.215Z,32.50
2018-07-26T11:15:31.936Z,32.50
2018-07-26T11:18:01.844Z,32.40
2018-07-26T11:20:31.247Z,32.30
2018-07-26T11:23:00.843Z,32.30
2018-07-26T11:25:30.219Z,32.60
2018-07-26T11:30:28.852Z,32.80
2018-07-26T11:32:58.281Z,32.80
2018-07-26T11:35:27.612Z,33.00
2018-07-26T11:37:56.980Z,33.20
2018-07-26T11:40:26.398Z,33.30
2018-07-26T11:42:55.801Z,33.70
2018-07-26T11:45:25.368Z,34.00
2018-07-26T11:47:54.725Z,34.00
2018-07-26T11:50:27.284Z,33.90
2018-07-26T11:52:56.595Z,34.10
2018-07-26T11:55:25.947Z,34.30
2018-07-26T11:57:55.325Z,34.10
2018-07-26T12:00:24.864Z,34.20
2018-07-26T12:02:54.780Z,34.00
2018-07-26T12:05:24.153Z,34.00
2018-07-26T12:07:53.627Z,34.20
2018-07-26T12:10:23.006Z,34.40
2018-07-26T12:12:52.386Z,34.90
2018-07-26T12:15:21.756Z,35.00
2018-07-26T12:17:51.068Z,35.00
2018-07-26T12:20:20.469Z,35.00
2018-07-26T12:22:49.735Z,35.20
2018-07-26T12:25:19.060Z,35.40
2018-07-26T12:30:17.940Z,35.00
2018-07-26T12:32:47.270Z,35.50
2018-07-26T12:35:16.978Z,35.30
2018-07-26T12:37:46.360Z,36.20
2018-07-26T12:40:15.678Z,36.50
2018-07-26T12:45:14.492Z,36.50
2018-07-26T12:47:43.862Z,36.30
2018-07-26T12:50:13.257Z,35.70
2018-07-26T12:52:42.655Z,35.50
2018-07-26T12:55:12.016Z,35.80
2018-07-26T12:57:41.531Z,36.30
2018-07-26T13:00:10.985Z,36.40
2018-07-26T13:02:40.368Z,36.70
2018-07-26T13:05:09.692Z,36.60
2018-07-26T13:07:39.247Z,37.00
2018-07-26T13:10:08.700Z,36.90
2018-07-26T13:12:38.016Z,37.00
2018-07-26T13:15:07.608Z,36.40
2018-07-26T13:17:37.014Z,36.50
2018-07-26T13:20:07.576Z,36.50
2018-07-26T13:22:36.864Z,37.00
2018-07-26T13:25:06.424Z,37.40
2018-07-26T13:27:35.699Z,37.60
2018-07-26T13:30:05.369Z,37.60
2018-07-26T13:32:34.775Z,37.50
2018-07-26T13:35:04.113Z,37.70
2018-07-26T13:37:33.433Z,37.50
2018-07-26T13:40:04.324Z,37.90
2018-07-26T13:42:33.704Z,38.60
2018-07-26T13:45:02.992Z,38.80
2018-07-26T13:47:32.316Z,38.70
2018-07-26T13:50:01.752Z,38.10
2018-07-26T13:52:31.136Z,38.70
2018-07-26T13:55:00.483Z,38.20
2018-07-26T13:57:30.118Z,37.50
2018-07-26T13:59:59.641Z,37.60
2018-07-26T14:02:28.950Z,38.20
2018-07-26T14:04:58.242Z,37.20
2018-07-26T14:07:27.572Z,37.00
2018-07-26T14:09:57.028Z,38.40
2018-07-26T14:12:26.791Z,39.40
2018-07-26T14:14:56.164Z,39.30
2018-07-26T14:17:25.504Z,39.20
2018-07-26T14:19:54.888Z,39.90
2018-07-26T14:22:24.358Z,38.90
2018-07-26T14:24:54.984Z,38.50
2018-07-26T14:27:24.300Z,38.30
2018-07-26T14:29:53.739Z,38.90
2018-07-26T14:32:23.101Z,38.40
2018-07-26T14:34:52.832Z,39.10
2018-07-26T14:37:22.248Z,39.80
2018-07-26T14:39:51.693Z,39.50
2018-07-26T14:42:21.187Z,39.30
2018-07-26T14:44:50.632Z,39.70
2018-07-26T14:47:20.938Z,39.50
2018-07-26T14:49:50.279Z,40.20
2018-07-26T14:52:19.573Z,39.70
2018-07-26T14:54:49.152Z,39.90
2018-07-26T14:57:18.468Z,40.00
2018-07-26T14:59:47.927Z,39.70
2018-07-26T15:02:17.259Z,39.50
2018-07-26T15:04:46.640Z,39.30
2018-07-26T15:07:15.923Z,39.40
2018-07-26T15:09:45.400Z,39.60
2018-07-26T15:12:14.656Z,40.70
2018-07-26T15:14:44.131Z,41.40
2018-07-26T15:17:13.548Z,41.30
2018-07-26T15:19:42.900Z,40.90
2018-07-26T15:24:41.033Z,40.20
2018-07-26T15:27:10.379Z,40.10
2018-07-26T15:32:08.522Z,39.80
2018-07-26T15:34:37.989Z,40.00
2018-07-26T15:37:07.353Z,40.50
2018-07-26T15:39:36.712Z,40.10
2018-07-26T15:42:06.589Z,39.00
2018-07-26T15:44:36.021Z,39.20
2018-07-26T15:49:34.211Z,40.50
2018-07-26T15:52:03.613Z,41.40
2018-07-26T15:54:32.973Z,41.70
2018-07-26T15:57:02.353Z,41.40
2018-07-26T15:59:31.742Z,40.50
2018-07-26T16:02:01.172Z,40.10
2018-07-26T16:04:30.524Z,40.40
2018-07-26T16:06:59.825Z,40.70
2018-07-26T16:09:29.208Z,41.00
2018-07-26T16:11:58.565Z,41.10
2018-07-26T16:14:27.860Z,41.10
2018-07-26T16:16:57.240Z,41.00
2018-07-26T16:19:26.701Z,40.70
2018-07-26T16:21:56.187Z,40.60
2018-07-26T16:24:26.063Z,40.50
2018-07-26T16:26:55.410Z,40.50
2018-07-26T16:29:24.799Z,41.10
2018-07-26T16:31:56.293Z,41.40
2018-07-26T16:34:25.640Z,41.20
2018-07-26T16:36:55.372Z,40.50
2018-07-26T16:39:24.707Z,39.10
2018-07-26T16:41:53.981Z,38.30
2018-07-26T16:44:23.257Z,37.90
2018-07-26T16:46:52.585Z,37.00
2018-07-26T16:49:22.028Z,35.90
2018-07-26T16:51:51.319Z,35.40
2018-07-26T16:54:21.141Z,35.10
2018-07-26T16:56:50.608Z,34.70
2018-07-26T16:59:20.567Z,34.20
2018-07-26T17:01:50.267Z,33.90
2018-07-26T17:04:20.220Z,33.60
2018-07-26T17:06:50.128Z,33.40
2018-07-26T17:09:20.050Z,33.20
2018-07-26T17:11:49.451Z,33.20
2018-07-26T17:14:18.814Z,33.10
2018-07-26T17:16:48.148Z,32.80
2018-07-26T17:19:17.488Z,32.40
2018-07-26T17:21:46.904Z,32.30
2018-07-26T17:24:16.759Z,32.30
2018-07-26T17:26:46.269Z,32.20
2018-07-26T17:29:15.649Z,32.00
2018-07-26T17:31:45.311Z,31.90
2018-07-26T17:34:14.682Z,31.70
2018-07-26T17:36:44.031Z,31.60
2018-07-26T17:39:14.338Z,31.50
2018-07-26T17:41:43.680Z,31.40
2018-07-26T17:44:13.400Z,31.40
2018-07-26T17:46:42.762Z,31.30
2018-07-26T17:49:12.225Z,31.20
2018-07-26T17:51:41.551Z,31.10
2018-07-26T17:54:10.871Z,31.10
2018-07-26T17:56:40.236Z,30.90
2018-07-26T17:59:09.744Z,30.80
2018-07-26T18:01:39.136Z,30.70
2018-07-26T18:04:08.525Z,30.60
2018-07-26T18:06:37.879Z,30.50
2018-07-26T18:09:08.615Z,30.50
2018-07-26T18:11:37.953Z,30.40
2018-07-26T18:14:07.345Z,30.30
2018-07-26T18:16:36.703Z,30.30
2018-07-26T18:19:05.992Z,30.20
2018-07-26T18:21:35.292Z,30.10
2018-07-26T18:24:04.693Z,30.00
2018-07-26T18:26:33.989Z,29.90
2018-07-26T18:29:03.396Z,29.80
2018-07-26T18:31:32.792Z,29.80
2018-07-26T18:34:02.089Z,29.70
2018-07-26T18:36:31.363Z,29.50
2018-07-26T18:39:01.775Z,29.40
2018-07-26T18:41:31.096Z,29.40
2018-07-26T18:44:00.528Z,29.30
2018-07-26T18:46:29.712Z,29.30
2018-07-26T18:48:59.093Z,29.20
2018-07-26T18:51:28.481Z,29.10
2018-07-26T18:53:57.997Z,29.00
2018-07-26T18:56:27.327Z,28.90
2018-07-26T18:58:56.687Z,28.80
2018-07-26T19:01:26.062Z,28.70
2018-07-26T19:03:55.951Z,28.50
2018-07-26T19:06:25.462Z,28.40
2018-07-26T19:08:54.853Z,28.20
2018-07-26T19:11:25.388Z,28.20
2018-07-26T19:13:54.701Z,28.00
2018-07-26T19:16:24.030Z,27.90
2018-07-26T19:21:22.240Z,27.70
2018-07-26T19:23:51.684Z,27.80
2018-07-26T19:26:21.044Z,27.70
2018-07-26T19:28:50.509Z,27.60
2018-07-26T19:31:20.403Z,27.60
2018-07-26T19:33:51.781Z,27.40
2018-07-26T19:36:21.566Z,27.20
2018-07-26T19:38:51.432Z,27.00
2018-07-26T19:41:21.332Z,26.90
2018-07-26T19:46:19.916Z,26.70
2018-07-26T19:48:49.544Z,26.60
2018-07-26T19:51:19.332Z,26.50
2018-07-26T19:53:48.884Z,26.50
2018-07-26T19:56:18.794Z,26.60
2018-07-26T19:58:48.587Z,26.30
2018-07-26T20:03:47.906Z,26.40
2018-07-26T20:06:17.567Z,26.40
2018-07-26T20:08:47.126Z,26.20
2018-07-26T20:11:16.474Z,26.20
2018-07-26T20:13:45.758Z,26.20
2018-07-26T20:16:15.289Z,26.20
2018-07-26T20:18:44.688Z,26.20
2018-07-26T20:21:14.024Z,26.20
2018-07-26T20:26:12.152Z,26.20
2018-07-26T20:28:41.577Z,26.20
2018-07-26T20:31:11.085Z,26.20
2018-07-26T20:33:40.616Z,26.10
2018-07-26T20:36:10.126Z,26.10
2018-07-26T20:38:40.258Z,26.00
2018-07-26T20:41:09.827Z,25.80
2018-07-26T20:43:39.489Z,25.70
2018-07-26T20:46:09.150Z,25.60
2018-07-26T20:48:38.713Z,25.60
2018-07-26T20:51:08.598Z,25.60
2018-07-26T20:53:37.857Z,25.60
2018-07-26T20:56:07.132Z,25.40
2018-07-26T20:58:36.361Z,25.50
2018-07-26T21:01:05.665Z,25.20
2018-07-26T21:03:35.200Z,25.20
2018-07-26T21:06:04.489Z,25.20
2018-07-26T21:08:33.735Z,25.20
2018-07-26T21:11:02.972Z,25.10
2018-07-26T21:13:32.670Z,25.10
2018-07-26T21:16:01.947Z,24.80
2018-07-26T21:18:31.223Z,24.80
2018-07-26T21:21:00.497Z,24.80
2018-07-26T21:23:29.776Z,24.80
2018-07-26T21:25:59.057Z,24.70
2018-07-26T21:28:28.297Z,24.60
2018-07-26T21:30:57.571Z,24.60
2018-07-26T21:33:26.776Z,24.60
2018-07-26T21:35:56.277Z,24.60
2018-07-26T21:38:25.496Z,24.60
2018-07-26T21:40:54.774Z,24.60
2018-07-26T21:43:24.248Z,24.60
2018-07-26T21:45:53.549Z,24.60
2018-07-26T21:48:22.771Z,24.60
2018-07-26T21:50:52.076Z,24.50
2018-07-26T21:53:21.343Z,24.50
2018-07-26T21:55:50.585Z,24.40
2018-07-26T21:58:19.798Z,24.30
2018-07-26T22:00:54.241Z,24.40
2018-07-26T22:03:23.490Z,24.30
2018-07-26T22:05:52.897Z,24.10
2018-07-26T22:08:22.404Z,24.10
2018-07-26T22:10:52.832Z,24.00
2018-07-26T22:13:22.052Z,23.90
2018-07-26T22:15:52.372Z,23.90
2018-07-26T22:18:22.365Z,23.80
2018-07-26T22:20:51.767Z,23.70
2018-07-26T22:23:21.093Z,23.80
2018-07-26T22:25:51.188Z,23.70
2018-07-26T22:28:20.421Z,23.70
2018-07-26T22:30:49.661Z,23.70
2018-07-26T22:33:18.907Z,23.80
2018-07-26T22:35:48.212Z,23.80
2018-07-26T22:38:17.412Z,23.90
2018-07-26T22:40:46.687Z,23.90
2018-07-26T22:43:15.915Z,24.00
2018-07-26T22:45:45.152Z,23.90
2018-07-26T22:48:14.719Z,23.80
2018-07-26T22:50:44.087Z,23.80
2018-07-26T22:53:13.318Z,23.80
2018-07-26T22:55:42.724Z,23.80
2018-07-26T22:58:11.947Z,23.70
2018-07-26T23:00:41.289Z,23.50
2018-07-26T23:03:10.525Z,23.50
2018-07-26T23:05:39.793Z,23.40
2018-07-26T23:08:09.394Z,23.20
2018-07-26T23:10:40.058Z,23.20
2018-07-26T23:13:09.844Z,23.30
2018-07-26T23:15:39.375Z,23.40
2018-07-26T23:18:08.957Z,23.50
2018-07-26T23:20:38.948Z,23.50
2018-07-26T23:23:08.782Z,23.40
2018-07-26T23:25:38.388Z,23.40
2018-07-26T23:28:08.401Z,23.50
2018-07-26T23:30:38.144Z,23.40
2018-07-26T23:33:07.751Z,23.50
2018-07-26T23:35:37.364Z,23.40
2018-07-26T23:38:07.039Z,23.20
2018-07-26T23:40:37.595Z,22.90
2018-07-26T23:43:07.203Z,22.70
2018-07-26T23:45:37.092Z,22.80
2018-07-26T23:48:06.797Z,22.80
2018-07-26T23:50:37.637Z,22.70
2018-07-26T23:53:13.908Z,22.60
2018-07-26T23:55:44.152Z,22.60
2018-07-26T23:58:13.936Z,22.50
